Impacts METAR Board INFO
IDs:

KFLL - Ft Lauderdale-Hollyw, FL, US

Updated at: 2132 UTC 17 Dec 2017
Potential Impact None Slight Moderate High
Time17/09Z 17/10Z 17/11Z 17/12Z 17/13Z 17/14Z 17/15Z 17/16Z 17/17Z 17/18Z 17/19Z 17/20Z 17/21Z
VIS10 10 10 10 10 10 10 10 10 10 10 10 10
CIG36 50 35 31 250 50 44 250 250 250 -- -- --
CoverBKNBKNBKNBKNBKNBKNBKNBKNBKNBKNSCTSCTSCT
FltCatVFRVFRVFRVFRVFRVFRVFRVFRVFRVFRVFRVFRVFR
WX--------------------------
WDir70808090100100110130120140140110110
WSpd10 9 10 10 13 12 14 14 12 11 10 11 11
WGst-- -- -- -- -- -- -- -- -- -- -- -- --
Raw hourly METARs
KFLL 170853Z 07010KT 10SM FEW024 BKN036 BKN250 23/20 A3018 RMK AO2 SLP220 T02280200 56005
KFLL 170953Z 08009KT 10SM SCT024 BKN050 BKN250 23/20 A3018 RMK AO2 SLP218 T02280200
KFLL 171053Z 08010KT 10SM SCT025 BKN035 BKN050 BKN250 23/21 A3018 RMK AO2 SLP220 T02330206
KFLL 171153Z 09010KT 10SM SCT023 BKN031 BKN250 23/21 A3020 RMK AO2 SLP227 T02330206 10233 20222 53007
KFLL 171253Z 10013KT 10SM FEW025 SCT050 BKN250 24/21 A3021 RMK AO2 SLP228 T02390206
KFLL 171353Z 10012KT 10SM SCT029 SCT038 BKN050 BKN250 24/21 A3022 RMK AO2 SLP233 T02440211
KFLL 171453Z 11014KT 10SM SCT037 BKN044 BKN050 BKN250 26/19 A3023 RMK AO2 SLP236 T02560194 53008
KFLL 171553Z 13014KT 10SM FEW027 FEW055 BKN250 26/20 A3024 RMK AO2 SLP238 T02560200
KFLL 171653Z 12012KT 10SM SCT025 BKN250 26/21 A3022 RMK AO2 SLP234 T02560211
KFLL 171753Z 14011KT 10SM SCT032 BKN250 26/21 A3019 RMK AO2 SLP222 T02610206 10267 20233 58014
KFLL 171853Z 14010KT 10SM SCT026 SCT250 27/21 A3017 RMK AO2 SLP216 T02670211
KFLL 171953Z 11011KT 10SM SCT025 SCT044 SCT250 26/21 A3017 RMK AO2 SLP215 T02560206
KFLL 172053Z 11011KT 10SM FEW026 FEW060 SCT250 25/21 A3017 RMK AO2 SLP215 T02500211 56007